Map

Track Data

SID SEASON NUMBER BASIN SUBBASIN NAME ISO_TIME NATURE LAT LON WMO_WIND WMO_PRES WMO_AGENCY TRACK_TYPE DIST2LAND LANDFALL IFLAG USA_AGENCY USA_ATCF_ID USA_LAT USA_LON USA_RECORD USA_STATUS USA_WIND USA_PRES USA_SSHS USA_R34_NE USA_R34_SE USA_R34_SW USA_R34_NW USA_R50_NE USA_R50_SE USA_R50_SW USA_R50_NW USA_R64_NE USA_R64_SE USA_R64_SW USA_R64_NW USA_POCI USA_ROCI USA_RMW USA_EYE TOKYO_LAT TOKYO_LON TOKYO_GRADE TOKYO_WIND TOKYO_PRES TOKYO_R50_DIR TOKYO_R50_LONG TOKYO_R50_SHORT TOKYO_R30_DIR TOKYO_R30_LONG TOKYO_R30_SHORT TOKYO_LAND CMA_LAT CMA_LON CMA_CAT CMA_WIND CMA_PRES HKO_LAT HKO_LON HKO_CAT HKO_WIND HKO_PRES NEWDELHI_LAT NEWDELHI_LON NEWDELHI_GRADE NEWDELHI_WIND NEWDELHI_PRES NEWDELHI_CI NEWDELHI_DP NEWDELHI_POCI REUNION_LAT REUNION_LON REUNION_TYPE REUNION_WIND REUNION_PRES REUNION_TNUM REUNION_CI REUNION_RMW REUNION_R34_NE REUNION_R34_SE REUNION_R34_SW REUNION_R34_NW REUNION_R50_NE REUNION_R50_SE REUNION_R50_SW REUNION_R50_NW REUNION_R64_NE REUNION_R64_SE REUNION_R64_SW REUNION_R64_NW BOM_LAT BOM_LON BOM_TYPE BOM_WIND BOM_PRES BOM_TNUM BOM_CI BOM_RMW BOM_R34_NE BOM_R34_SE BOM_R34_SW BOM_R34_NW BOM_R50_NE BOM_R50_SE BOM_R50_SW BOM_R50_NW BOM_R64_NE BOM_R64_SE BOM_R64_SW BOM_R64_NW BOM_ROCI BOM_POCI BOM_EYE BOM_POS_METHOD BOM_PRES_METHOD NADI_LAT NADI_LON NADI_CAT NADI_WIND NADI_PRES WELLINGTON_LAT WELLINGTON_LON WELLINGTON_WIND WELLINGTON_PRES DS824_LAT DS824_LON DS824_STAGE DS824_WIND DS824_PRES TD9636_LAT TD9636_LON TD9636_STAGE TD9636_WIND TD9636_PRES TD9635_LAT TD9635_LON TD9635_WIND TD9635_PRES TD9635_ROCI NEUMANN_LAT NEUMANN_LON NEUMANN_CLASS NEUMANN_WIND NEUMANN_PRES MLC_LAT MLC_LON MLC_CLASS MLC_WIND MLC_PRES USA_GUST BOM_GUST BOM_GUST_PER REUNION_GUST REUNION_GUST_PER USA_SEAHGT USA_SEARAD_NE USA_SEARAD_SE USA_SEARAD_SW USA_SEARAD_NW STORM_SPEED STORM_DIR
1923080S12146 1923 22 SP EA NOT_NAMED 1923-03-20 23:00:00 NR -12.0000 146.000 1003 bom main 282 282 ______O_______ -1 -12.0000 146.000 1003 1 0
1923080S12146 1923 22 SP EA NOT_NAMED 1923-03-21 00:00:00 TS -11.9904 145.985 main 282 279 ______P__O____ -1 -11.9856 145.978 -12.0000 146.000 TC 25 1003 1 302
1923080S12146 1923 22 SP EA NOT_NAMED 1923-03-21 03:00:00 TS -11.9482 145.920 main 281 281 ______P__P____ -1 -11.9425 145.911 -11.9568 145.933 TC 2 303
1923080S12146 1923 22 SP EA NOT_NAMED 1923-03-21 06:00:00 TS -11.9061 145.855 main 281 272 ______P__P____ -1 -11.9001 145.845 -11.9141 145.867 TC 2 304
1923080S12146 1923 22 SP EA NOT_NAMED 1923-03-21 09:00:00 TS -11.8658 145.791 main 272 265 ______P__P____ -1 -11.8590 145.780 -11.8726 145.802 TC 1 303
1923080S12146 1923 22 SP EA NOT_NAMED 1923-03-21 12:00:00 TS -11.8262 145.727 main 265 265 ______P__P____ -1 -11.8197 145.716 -11.8326 145.737 TC 1 301
1923080S12146 1923 22 SP EA NOT_NAMED 1923-03-21 15:00:00 TS -11.7888 145.664 main 265 255 ______P__P____ -1 -11.7828 145.654 -11.7948 145.675 TC 1 302
1923080S12146 1923 22 SP EA NOT_NAMED 1923-03-21 18:00:00 TS -11.7543 145.604 main 255 249 ______P__P____ -1 -11.7488 145.594 -11.7598 145.614 TC 1 299
1923080S12146 1923 22 SP EA NOT_NAMED 1923-03-21 21:00:00 TS -11.7231 145.546 main 249 249 ______P__P____ -1 -11.7182 145.537 -11.7280 145.556 TC 1 296
1923080S12146 1923 22 SP EA NOT_NAMED 1923-03-21 23:00:00 TS -11.7044 145.509 1000 bom main 249 249 ______O__P____ -1 -11.7000 145.500 1000 -11.7089 145.518 TC 1 299
1923080S12146 1923 22 SP EA NOT_NAMED 1923-03-22 00:00:00 TS -11.6958 145.491 main 249 239 ______P__O____ -1 -11.6916 145.482 -11.7000 145.500 TC 30 1000 1 294
1923080S12146 1923 22 SP EA NOT_NAMED 1923-03-22 03:00:00 TS -11.6724 145.439 main 239 239 ______P__P____ -1 -11.6688 145.430 -11.6760 145.447 TC 1 293
1923080S12146 1923 22 SP EA NOT_NAMED 1923-03-22 06:00:00 TS -11.6516 145.387 main 239 233 ______P__P____ -1 -11.6482 145.378 -11.6549 145.395 TC 1 291
1923080S12146 1923 22 SP EA NOT_NAMED 1923-03-22 09:00:00 TS -11.6317 145.334 main 233 233 ______P__P____ -1 -11.6284 145.325 -11.6350 145.343 TC 1 291
1923080S12146 1923 22 SP EA NOT_NAMED 1923-03-22 12:00:00 TS -11.6113 145.278 main 233 222 ______P__P____ -1 -11.6078 145.268 -11.6148 145.288 TC 1 291
1923080S12146 1923 22 SP EA NOT_NAMED 1923-03-22 15:00:00 TS -11.5888 145.217 main 222 222 ______P__P____ -1 -11.5848 145.206 -11.5928 145.228 TC 1 291
1923080S12146 1923 22 SP EA NOT_NAMED 1923-03-22 18:00:00 TS -11.5626 145.149 main 211 211 ______P__P____ -1 -11.5579 145.137 -11.5674 145.161 TC 2 292
1923080S12146 1923 22 SP EA NOT_NAMED 1923-03-22 21:00:00 TS -11.5312 145.072 main 214 203 ______P__P____ -1 -11.5254 145.059 -11.5370 145.086 TC 2 293
1923080S12146 1923 22 SP EA NOT_NAMED 1923-03-22 23:00:00 TS -11.5066 145.015 1000 bom main 203 203 ______O__P____ -1 -11.5000 145.000 1000 -11.5131 145.030 TC 2 294
1923080S12146 1923 22 SP EA NOT_NAMED 1923-03-23 00:00:00 TS -11.4914 144.983 main 203 193 ______P__O____ -1 -11.4828 144.966 -11.5000 145.000 TC 30 1000 2 297
1923080S12146 1923 22 SP EA NOT_NAMED 1923-03-23 03:00:00 TS -11.4359 144.875 main 197 186 ______P__P____ -1 -11.4260 144.857 -11.4458 144.894 TC 3 298
1923080S12146 1923 22 SP EA NOT_NAMED 1923-03-23 06:00:00 TS -11.3737 144.757 main 186 171 ______P__P____ -1 -11.3629 144.737 -11.3845 144.778 TC 3 298
1923080S12146 1923 22 SP EA NOT_NAMED 1923-03-23 09:00:00 TS -11.3072 144.631 main 171 161 ______P__P____ -1 -11.2959 144.610 -11.3185 144.653 TC 3 298
1923080S12146 1923 22 SP EA NOT_NAMED 1923-03-23 12:00:00 TS -11.2387 144.500 main 167 158 ______P__P____ -1 -11.2272 144.478 -11.2501 144.522 TC 3 298
1923080S12146 1923 22 SP EA NOT_NAMED 1923-03-23 15:00:00 TS -11.1706 144.367 main 158 145 ______P__P____ -1 -11.1594 144.344 -11.1818 144.389 TC 3 297
1923080S12146 1923 22 SP EA NOT_NAMED 1923-03-23 18:00:00 TS -11.1052 144.234 main 145 135 ______P__P____ -1 -11.0946 144.212 -11.1157 144.256 TC 3 296
1923080S12146 1923 22 SP EA NOT_NAMED 1923-03-23 21:00:00 TS -11.0448 144.104 main 138 128 ______P__P____ -1 -11.0353 144.083 -11.0543 144.125 TC 3 295
1923080S12146 1923 22 SP EA NOT_NAMED 1923-03-23 23:00:00 TS -11.0086 144.020 998 bom main 128 128 ______O__P____ -1 -11.0000 144.000 998 -11.0172 144.041 TC 3 292
1923080S12146 1923 22 SP EA NOT_NAMED 1923-03-24 00:00:00 TS -10.9954 143.981 main 128 117 ______P__O____ -1 -10.9907 143.962 -11.0000 144.000 TC 35 998 2 283
1923080S12146 1923 22 SP EA NOT_NAMED 1923-03-24 03:00:00 TS -10.9721 143.865 main 117 107 ______P__P____ -1 -10.9697 143.850 -10.9744 143.879 TC 2 280
1923080S12146 1923 22 SP EA NOT_NAMED 1923-03-24 06:00:00 TS -10.9561 143.752 main 107 90 ______P__P____ -1 -10.9553 143.743 -10.9569 143.761 TC 2 277
1923080S12146 1923 22 SP EA NOT_NAMED 1923-03-24 09:00:00 TS -10.9435 143.643 main 90 79 ______P__P____ -1 -10.9436 143.639 -10.9434 143.648 TC 2 277
1923080S12146 1923 22 SP EA NOT_NAMED 1923-03-24 12:00:00 TS -10.9301 143.539 main 79 69 ______P__P____ -1 -10.9302 143.538 -10.9300 143.540 TC 2 279
1923080S12146 1923 22 SP EA NOT_NAMED 1923-03-24 15:00:00 TS -10.9120 143.441 main 69 69 ______P__P____ -1 -10.9111 143.441 -10.9129 143.440 TC 2 284
1923080S12146 1923 22 SP EA NOT_NAMED 1923-03-24 18:00:00 TS -10.8850 143.348 main 59 59 ______P__P____ -1 -10.8820 143.348 -10.8881 143.349 TC 2 291
1923080S12146 1923 22 SP EA NOT_NAMED 1923-03-24 21:00:00 TS -10.8453 143.263 main 64 55 ______P__P____ -1 -10.8387 143.258 -10.8518 143.268 TC 2 298
1923080S12146 1923 22 SP EA NOT_NAMED 1923-03-24 23:00:00 TS -10.8096 143.211 994 bom main 55 55 ______O__P____ -1 -10.8000 143.200 994 -10.8192 143.221 TC 2 306
1923080S12146 1923 22 SP EA NOT_NAMED 1923-03-25 00:00:00 TS -10.7884 143.183 main 55 46 ______P__O____ -1 -10.7767 143.166 -10.8000 143.200 TC 40 994 3 305
1923080S12146 1923 22 SP EA NOT_NAMED 1923-03-25 03:00:00 TS -10.6993 143.052 main 55 46 ______P__P____ -1 -10.6969 143.064 -10.7017 143.040 TC 3 307
1923080S12146 1923 22 SP EA NOT_NAMED 1923-03-25 06:00:00 TS -10.5949 142.925 main 49 46 ______P__P____ -1 -10.6034 142.969 -10.5864 142.880 TC 3 313
1923080S12146 1923 22 SP EA NOT_NAMED 1923-03-25 09:00:00 TS -10.4792 142.814 main 46 46 ______P__P____ -1 -10.4979 142.888 -10.4605 142.739 TC 3 322
1923080S12146 1923 22 SP EA NOT_NAMED 1923-03-25 12:00:00 TS -10.3563 142.732 main 49 49 ______P__P____ -1 -10.3821 142.827 -10.3305 142.637 TC 3 332
1923080S12146 1923 22 SP EA NOT_NAMED 1923-03-25 14:00:00 TS -10.2724 142.700 992 bom main 60 60 ______O__P____ -1 -10.3000 142.800 992 -10.2448 142.600 TC 3 338
1923080S12146 1923 22 SP EA NOT_NAMED 1923-03-25 15:00:00 TS -10.2296 142.676 main 70 68 ______P__P____ -1 -10.2562 142.761 991 -10.2030 142.592 TC 3 341
1923080S12146 1923 22 SP EA NOT_NAMED 1923-03-25 18:00:00 TS -10.1015 142.645 main 79 79 ______P__P____ -1 -10.1185 142.665 991 -10.0845 142.625 TC 3 8
1923080S12146 1923 22 SP EA NOT_NAMED 1923-03-25 21:00:00 TS -9.98195 142.717 main 79 70 ______P__P____ -1 -9.98257 142.679 990 -9.98134 142.755 TC 3 47
1923080S12146 1923 22 SP EA NOT_NAMED 1923-03-25 23:00:00 TS -9.91215 142.852 990 bom main 74 74 ______O__P____ -1 -9.90000 142.800 990 -9.92431 142.904 TC 5 66
1923080S12146 1923 22 SP EA NOT_NAMED 1923-03-26 00:00:00 TS -9.87578 142.960 main 80 70 ______P__O____ -1 -9.85156 142.920 989 -9.90000 143.000 TC 45 990 8 75
1923080S12146 1923 22 SP EA NOT_NAMED 1923-03-26 03:00:00 TS -9.77085 143.396 main 89 81 ______P__P____ -1 -9.72980 143.390 989 -9.81190 143.402 TC 47 989 9 80
1923080S12146 1923 22 SP EA NOT_NAMED 1923-03-26 05:00:00 TS -9.74550 143.688 989 bom main 85 85 ______O__P____ -1 -9.70000 143.700 989 -9.79100 143.677 TC 49 989 8 85
1923080S12146 1923 22 SP EA NOT_NAMED 1923-03-26 06:00:00 TS -9.73885 143.803 main 89 89 ______P__O____ -1 -9.67769 143.807 988 -9.80000 143.800 TC 50 989 6 103
1923080S12146 1923 22 SP EA NOT_NAMED 1923-03-26 09:00:00 TS -9.82866 144.053 main 118 118 ______P__P____ -1 -9.67446 144.042 988 -9.98286 144.065 TC 5 131
1923080S12146 1923 22 SP EA NOT_NAMED 1923-03-26 12:00:00 TS -10.0805 144.208 main 151 151 ______P__P____ -1 -9.84736 144.189 987 -10.3136 144.227 TC 7 161
1923080S12146 1923 22 SP EA NOT_NAMED 1923-03-26 15:00:00 TS -10.5158 144.299 987 bom main 177 158 ______O__P____ -1 -10.3000 144.300 987 -10.7316 144.298 TC 11 171
1923080S12146 1923 22 SP EA NOT_NAMED 1923-03-26 18:00:00 TS -11.1947 144.395 main 158 138 ______P__P____ -1 -11.2136 144.499 985 -11.1759 144.292 TC 13 176
1923080S12146 1923 22 SP EA NOT_NAMED 1923-03-26 20:00:00 TS -11.5783 144.376 985 bom main 138 124 ______O__P____ -1 -11.7000 144.500 985 -11.4567 144.251 TC 10 188
1923080S12146 1923 22 SP EA NOT_NAMED 1923-03-26 21:00:00 TS -11.6996 144.324 main 124 111 ______P__P____ -1 -11.8135 144.427 984 -11.5857 144.221 TC 7 216
1923080S12146 1923 22 SP EA NOT_NAMED 1923-03-26 23:00:00 TS -11.8548 144.173 984 bom main 109 98 ______O__P____ -1 -11.9000 144.200 984 -11.8096 144.145 TC 6 225
1923080S12146 1923 22 SP EA NOT_NAMED 1923-03-27 00:00:00 TS -11.9195 144.104 main 98 77 ______P__O____ -1 -11.9389 144.108 -11.9000 144.100 TC 55 984 4 252
1923080S12146 1923 22 SP EA NOT_NAMED 1923-03-27 03:00:00 TS -11.9379 143.918 main 77 55 ______P__P____ -1 -11.9617 143.859 -11.9142 143.977 TC 4 279
1923080S12146 1923 22 SP EA NOT_NAMED 1923-03-27 06:00:00 TS -11.8589 143.720 main 55 39 ______P__P____ -1 -11.8817 143.642 -11.8360 143.797 TC 5 298
1923080S12146 1923 22 SP EA NOT_NAMED 1923-03-27 09:00:00 TS -11.7292 143.509 main 46 40 ______P__P____ -1 -11.7479 143.443 -11.7105 143.576 TC 5 302
1923080S12146 1923 22 SP EA NOT_NAMED 1923-03-27 12:00:00 TS -11.5959 143.288 main 43 21 ______P__P____ -1 -11.6092 143.249 -11.5826 143.326 TC 5 297
1923080S12146 1923 22 SP EA NOT_NAMED 1923-03-27 15:00:00 TS -11.5060 143.055 main 21 0 ______P__P____ -1 -11.5145 143.046 -11.4974 143.063 TC 5 285
1923080S12146 1923 22 SP EA NOT_NAMED 1923-03-27 17:00:00 TS -11.4933 142.893 984 bom main 0 0 ______O__P____ -1 -11.5000 142.900 984 -11.4866 142.887 TC 5 269
1923080S12146 1923 22 SP EA NOT_NAMED 1923-03-27 18:00:00 TS -11.5106 142.808 main 0 0 ______P__O____ -1 -11.5213 142.817 984 -11.5000 142.800 TC 55 984 5 248
1923080S12146 1923 22 SP EA NOT_NAMED 1923-03-27 21:00:00 TS -11.6248 142.559 main 0 0 ______P__P____ -1 -11.6173 142.564 985 -11.6323 142.555 TC 52 985 6 243
1923080S12146 1923 22 SP EA NOT_NAMED 1923-03-27 23:00:00 TS -11.7215 142.393 987 bom main 0 0 ______O__P____ -1 -11.7000 142.400 987 -11.7431 142.386 TC 50 986 6 239
1923080S12146 1923 22 SP EA NOT_NAMED 1923-03-28 00:00:00 TS -11.7708 142.314 main 0 0 ______P__O____ -1 -11.7416 142.327 987 -11.8000 142.300 TC 50 987 5 238
1923080S12146 1923 22 SP EA NOT_NAMED 1923-03-28 03:00:00 TS -11.9152 142.082 main 0 0 ______P__P____ -1 -11.8823 142.124 987 -11.9480 142.041 TC 5 237
1923080S12146 1923 22 SP EA NOT_NAMED 1923-03-28 06:00:00 TS -12.0663 141.849 main 0 0 ______P__P____ -1 -12.0388 141.924 987 -12.0939 141.774 TC 6 237
1923080S12146 1923 22 SP EA NOT_NAMED 1923-03-28 09:00:00 TS -12.2186 141.601 987 bom main 10 10 ______O__P____ -1 -12.2000 141.700 987 -12.2372 141.502 TC 6 240
1923080S12146 1923 22 SP EA NOT_NAMED 1923-03-28 12:00:00 TS -12.3658 141.320 main 39 39 ______P__P____ -1 -12.3541 141.413 -12.3776 141.226 TC 6 243
1923080S12146 1923 22 SP EA NOT_NAMED 1923-03-28 15:00:00 TS -12.5114 141.020 main 66 66 ______P__P____ -1 -12.5084 141.093 -12.5145 140.946 TC 7 244
1923080S12146 1923 22 SP EA NOT_NAMED 1923-03-28 18:00:00 TS -12.6537 140.710 main 98 98 ______P__P____ -1 -12.6600 140.756 -12.6475 140.665 TC 7 245
1923080S12146 1923 22 SP EA NOT_NAMED 1923-03-28 21:00:00 TS -12.7913 140.400 main 132 132 ______P__P____ -1 -12.8065 140.418 -12.7761 140.382 TC 7 246
1923080S12146 1923 22 SP EA NOT_NAMED 1923-03-28 23:00:00 TS -12.8796 140.197 976 bom main 152 152 ______O__P____ -1 -12.9000 140.200 976 -12.8593 140.194 TC 6 245
1923080S12146 1923 22 SP EA NOT_NAMED 1923-03-29 00:00:00 TS -12.9232 140.103 main 163 163 ______P__O____ -1 -12.9465 140.107 -12.9000 140.100 TC 65 976 6 245
1923080S12146 1923 22 SP EA NOT_NAMED 1923-03-29 03:00:00 TS -13.0497 139.828 main 195 195 ______P__P____ -1 -13.0818 139.842 -13.0175 139.815 TC 6 245
1923080S12146 1923 22 SP EA NOT_NAMED 1923-03-29 06:00:00 TS -13.1701 139.561 main 217 217 ______P__P____ -1 -13.2108 139.593 -13.1294 139.528 TC 6 246
1923080S12146 1923 22 SP EA NOT_NAMED 1923-03-29 09:00:00 TS -13.2847 139.298 main 247 242 ______P__P____ -1 -13.3330 139.355 -13.2365 139.240 TC 6 246
1923080S12146 1923 22 SP EA NOT_NAMED 1923-03-29 12:00:00 TS -13.3937 139.037 main 231 208 ______P__P____ -1 -13.4480 139.122 -13.3394 138.953 TC 6 247
1923080S12146 1923 22 SP EA NOT_NAMED 1923-03-29 15:00:00 TS -13.4971 138.776 main 208 174 ______P__P____ -1 -13.5552 138.886 -13.4389 138.666 TC 5 248
1923080S12146 1923 22 SP EA NOT_NAMED 1923-03-29 18:00:00 TS -13.5950 138.512 main 174 151 ______P__P____ -1 -13.6544 138.642 -13.5357 138.383 TC 6 250
1923080S12146 1923 22 SP EA NOT_NAMED 1923-03-29 21:00:00 TS -13.6876 138.243 main 140 130 ______P__P____ -1 -13.7448 138.383 -13.6305 138.103 TC 6 251
1923080S12146 1923 22 SP EA NOT_NAMED 1923-03-29 23:00:00 TS -13.7464 138.060 974 bom main 130 118 ______O__P____ -1 -13.8000 138.200 974 4 -13.6929 137.919 TC 6 253
1923080S12146 1923 22 SP EA NOT_NAMED 1923-03-30 00:00:00 TS -13.7734 137.961 main 118 86 ______P__P____ -1 -13.8228 138.094 -13.7240 137.828 TC 6 255
1923080S12146 1923 22 SP EA NOT_NAMED 1923-03-30 03:00:00 TS -13.8505 137.661 main 87 55 ______P__P____ -1 -13.8840 137.763 -13.8169 137.559 TC 6 255
1923080S12146 1923 22 SP EA NOT_NAMED 1923-03-30 06:00:00 TS -13.9253 137.362 main 55 31 ______P__P____ -1 -13.9404 137.427 -13.9101 137.298 TC 6 255
1923080S12146 1923 22 SP EA NOT_NAMED 1923-03-30 09:00:00 TS -14.0023 137.072 main 31 10 ______P__P____ -1 -14.0004 137.100 -14.0042 137.044 TC 6 254
1923080S12146 1923 22 SP EA NOT_NAMED 1923-03-30 12:00:00 TS -14.0860 136.797 main 10 0 ______P__O____ -1 -14.0720 136.794 -14.1000 136.800 TC 65 975 6 252
1923080S12146 1923 22 SP EA NOT_NAMED 1923-03-30 13:00:00 TS -14.1174 136.712 975 bom main 0 0 ______O__P____ -1 -14.1000 136.700 975 -14.1349 136.724 TC 65 975 5 248
1923080S12146 1923 22 SP EA NOT_NAMED 1923-03-30 15:00:00 TS -14.1810 136.555 main 0 0 ______P__P____ -1 -14.1574 136.537 975 -14.2047 136.574 TC 65 975 5 246
1923080S12146 1923 22 SP EA NOT_NAMED 1923-03-30 18:00:00 TS -14.2825 136.333 main 11 11 ______P__P____ -1 -14.2570 136.312 975 -14.3080 136.353 TC 65 975 5 244
1923080S12146 1923 22 SP EA NOT_NAMED 1923-03-30 21:00:00 TS -14.3928 136.112 main 31 24 ______P__P____ -1 -14.3782 136.094 975 -14.4074 136.131 TC 65 975 5 242
1923080S12146 1923 22 SP EA NOT_NAMED 1923-03-30 23:30:00 TS -14.4926 135.920 976 bom main 31 31 ______O__P____ -1 -14.5000 135.900 976 -14.4851 135.939 TC 65 975 5 241
1923080S12146 1923 22 SP EA NOT_NAMED 1923-03-31 00:00:00 TS -14.5140 135.879 main 31 10 ______P__O____ -1 -14.5280 135.858 976 -14.5000 135.900 TC 65 976 5 242
1923080S12146 1923 22 SP EA NOT_NAMED 1923-03-31 03:00:00 TS -14.6419 135.628 976 bom main 10 0 ______O__P____ -1 -14.7000 135.600 976 -14.5838 135.657 TC 5 245
1923080S12146 1923 22 SP EA NOT_NAMED 1923-03-31 06:00:00 TS -14.7476 135.367 main 0 0 ______P__P____ -1 -14.8359 135.334 -14.6593 135.400 TC 5 250
1923080S12146 1923 22 SP EA NOT_NAMED 1923-03-31 09:00:00 TS -14.8280 135.098 main 0 0 ______P__P____ -1 -14.9284 135.062 -14.7276 135.134 TC 5 255
1923080S12146 1923 22 SI WA NOT_NAMED 1923-03-31 12:00:00 TS -14.8872 134.821 main 0 0 ______P__P____ -1 -14.9848 134.785 -14.7897 134.858 TC 5 259
1923080S12146 1923 22 SI WA NOT_NAMED 1923-03-31 15:00:00 TS -14.9297 134.540 main 0 0 ______P__P____ -1 -15.0125 134.505 -14.8469 134.575 TC 5 263
1923080S12146 1923 22 SI WA NOT_NAMED 1923-03-31 18:00:00 TS -14.9511 134.259 main 0 0 ______P__P____ -1 -15.0190 134.222 -14.9002 134.286 TC 6 265
1923080S12146 1923 22 SI WA NOT_NAMED 1923-03-31 21:00:00 TS -14.9751 133.971 main 0 0 ______P__P____ -1 -15.0115 133.938 -14.9509 133.994 TC 6 265
1923080S12146 1923 22 SI WA NOT_NAMED 1923-03-31 23:30:00 TS -14.9946 133.733 990 bom main 0 0 ______O__P____ -1 -15.0000 133.700 990 -14.9919 133.749 TC 5 265
1923080S12146 1923 22 SI WA NOT_NAMED 1923-04-01 00:00:00 TS -15.0000 133.700 main 0 _________O____ -1 -15.0000 133.700 TC 45 990 4 262

Digital Typhoon Data and Search

About IBTrACS Database

This database is a web-friendly format of International Best Track Archive for Climate Stewardship (IBTrACS), a global best track data archive curated by NOAA dating back to 1842.

Updated: 2021-12-08